Time;durP1;ratioP1;P1;durP2;ratioP2;P2;SDS_P1;SDS_P2;PMS_P1;PMS_P2;Temp;Humidity;BMP_temperature;BMP_pressure;BME280_temperature;BME280_humidity;BME280_pressure;Samples;Min_cycle;Max_cycle;Signal;HPM_P1;HPM_P2
2023/01/16 08:52:01;;;;;;;12.70;6.10;;;3.30;99.90;;;;;;6286278;22;20026;-95
2023/01/16 08:55:38;;;;;;;15.02;5.32;;;2.70;99.90;;;;;;6294928;22;20027;-94
2023/01/16 09:06:04;;;;;;;19.15;5.85;;;3.30;99.90;;;;;;6201922;22;20036;-91
2023/01/16 09:09:59;;;;;;;;;;;;;;;;;;;;;
2023/01/16 09:16:57;;;;;;;;;;;;;;;;;;;;;
2023/01/16 09:58:50;;;;;;;28.92;10.55;;;3.90;99.90;;;;;;6040206;23;20155;-92
2023/01/16 10:20:11;;;;;;;5.63;3.08;;;3.70;99.90;;;;;;5595797;22;17024685;-93
2023/01/16 10:23:34;;;;;;;;;;;;;;;;;;;;;
2023/01/16 10:26:25;;;;;;;8.55;3.60;;;3.70;99.90;;;;;;6108530;23;20046;-95
2023/01/16 10:29:33;;;;;;;7.75;3.78;;;3.70;99.90;;;;;;6085574;23;20022;-92
2023/01/16 10:32:21;;;;;;;10.10;3.40;;;2.90;99.90;;;;;;6105430;23;20006;-90
2023/01/16 10:35:23;;;;;;;6.97;3.78;;;3.90;99.90;;;;;;6082067;23;20021;-95
2023/01/16 10:50:42;;;;;;;5.55;2.72;;;3.90;99.90;;;;;;6261813;22;20050;-93
2023/01/16 10:53:10;;;;;;;7.43;2.08;;;5.00;99.90;;;;;;6229977;22;20459;-94
2023/01/16 10:56:14;;;;;;;6.45;2.40;;;4.80;99.90;;;;;;6232937;22;20349;-88
2023/01/16 10:59:21;;;;;;;5.68;2.00;;;3.40;99.90;;;;;;6104745;23;20080;-93
2023/01/16 11:01:51;;;;;;;4.53;1.30;;;4.80;99.90;;;;;;6108025;23;20029;-91
2023/01/16 11:05:01;;;;;;;3.80;1.55;;;4.40;99.90;;;;;;6105662;22;20026;-89
2023/01/16 11:07:36;;;;;;;4.13;1.58;;;3.80;99.90;;;;;;6253926;22;20023;-91
2023/01/16 11:10:05;;;;;;;7.38;2.25;;;3.80;99.90;;;;;;6228951;22;20189;-92
2023/01/16 11:18:44;;;;;;;2.22;1.30;;;4.20;99.90;;;;;;6265172;22;20024;-94
2023/01/16 11:21:52;;;;;;;4.75;1.73;;;3.60;99.90;;;;;;6236939;22;20440;-92
2023/01/16 11:24:46;;;;;;;4.00;1.60;;;3.90;99.90;;;;;;6153080;23;20036;-95
2023/01/16 11:27:34;;;;;;;2.58;1.02;;;4.20;99.90;;;;;;6067029;23;20833;-93
2023/01/16 11:30:06;;;;;;;3.10;1.10;;;4.10;99.90;;;;;;6040750;23;20027;-90
2023/01/16 11:33:07;;;;;;;3.33;1.40;;;3.50;99.90;;;;;;6039395;23;20452;-88
2023/01/16 11:36:21;;;;;;;3.95;1.42;;;2.80;99.90;;;;;;5983347;23;20116;-89
2023/01/16 11:39:37;;;;;;;2.88;1.13;;;2.60;99.90;;;;;;6009025;23;20059;-90
2023/01/16 11:46:40;;;;;;;6.00;2.58;;;3.50;99.90;;;;;;5930004;24;20068;-90
2023/01/16 11:49:57;;;;;;;7.00;4.25;;;3.50;99.90;;;;;;5950718;24;20103;-91
2023/01/16 11:52:37;;;;;;;8.10;3.50;;;3.50;99.90;;;;;;5868401;24;20014;-89
2023/01/16 11:55:18;;;;;;;4.70;2.00;;;3.40;99.90;;;;;;5868779;24;20341;-90
2023/01/16 11:58:40;;;;;;;6.78;2.60;;;3.10;99.90;;;;;;5870542;24;20144;-90
2023/01/16 12:02:25;;;;;;;;;;;;;;;;;;;;;
2023/01/16 12:07:36;;;;;;;3.22;1.52;;;3.40;99.90;;;;;;6275113;22;20023;-94
2023/01/16 12:10:32;;;;;;;2.72;1.58;;;3.40;99.90;;;;;;6286813;22;20099;-90
2023/01/16 12:17:08;;;;;;;2.88;1.50;;;3.40;99.90;;;;;;6160312;23;20021;-90
2023/01/16 12:19:55;;;;;;;2.95;1.30;;;3.40;99.90;;;;;;6133496;23;20060;-87
2023/01/16 12:25:56;;;;;;;3.88;1.60;;;3.40;99.90;;;;;;6157357;23;20021;-88
2023/01/16 12:28:44;;;;;;;3.88;1.70;;;4.30;99.90;;;;;;6132250;23;20107;-89
2023/01/16 12:31:49;;;;;;;4.40;1.58;;;4.20;99.90;;;;;;6158463;23;20025;-88
2023/01/16 12:34:36;;;;;;;2.13;1.20;;;3.40;99.90;;;;;;6071283;23;20476;-85
2023/01/16 12:37:43;;;;;;;5.03;1.98;;;3.50;99.90;;;;;;6071043;23;20401;-90
2023/01/16 12:44:30;;;;;;;4.43;2.47;;;3.50;99.90;;;;;;6070128;23;20108;-92
2023/01/16 12:47:33;;;;;;;6.67;3.63;;;3.50;99.90;;;;;;6048622;23;20033;-89
2023/01/16 12:50:39;;;;;;;8.48;4.68;;;3.50;99.90;;;;;;6070656;23;20085;-89
2023/01/16 12:53:29;;;;;;;4.22;2.00;;;3.70;99.90;;;;;;6033920;23;20015;-91
2023/01/16 12:56:23;;;;;;;5.63;1.88;;;3.70;99.90;;;;;;6047069;23;20113;-92
2023/01/16 12:59:20;;;;;;;3.72;1.52;;;4.50;99.90;;;;;;6047406;23;20022;-92
2023/01/16 13:01:50;;;;;;;5.85;1.40;;;3.00;99.90;;;;;;6093787;23;20018;-94
2023/01/16 13:04:33;;;;;;;3.42;1.60;;;4.70;99.90;;;;;;6094939;23;20029;-94
2023/01/16 13:07:07;;;;;;;4.65;1.50;;;4.20;99.90;;;;;;6094820;23;20033;-92
2023/01/16 13:13:20;;;;;;;2.88;1.52;;;3.70;99.90;;;;;;6125092;23;20058;-95
2023/01/16 13:15:34;;;;;;;3.03;1.15;;;4.70;99.90;;;;;;6167591;23;20052;-94
2023/01/16 13:18:30;;;;;;;5.95;1.35;;;4.60;99.90;;;;;;6243139;22;20015;-87
2023/01/16 13:21:21;;;;;;;4.93;1.65;;;3.80;99.90;;;;;;6321623;22;20057;-92
2023/01/16 13:24:03;;;;;;;2.60;1.60;;;4.20;99.90;;;;;;6320847;22;20018;-85
2023/01/16 13:26:32;;;;;;;3.15;1.30;;;4.40;99.90;;;;;;6315806;22;20450;-93
2023/01/16 13:29:14;;;;;;;4.28;1.70;;;3.80;99.90;;;;;;6288986;22;20052;-88
2023/01/16 13:32:24;;;;;;;4.47;1.52;;;4.40;99.90;;;;;;6288906;22;20072;-90
2023/01/16 13:34:55;;;;;;;2.33;1.50;;;3.90;99.90;;;;;;6318242;22;20018;-91
2023/01/16 13:37:37;;;;;;;4.95;1.85;;;4.60;99.90;;;;;;6289581;22;20523;-92
2023/01/16 13:40:26;;;;;;;2.72;1.70;;;3.90;99.90;;;;;;6291167;22;20019;-94
2023/01/16 13:45:47;;;;;;;3.85;1.77;;;3.90;99.90;;;;;;6341544;22;20432;-91
2023/01/16 13:45:49;;;;;;;3.88;1.80;;;5.00;99.90;;;;;;6319265;22;20031;-94
2023/01/16 13:48:32;;;;;;;4.53;2.08;;;5.10;99.90;;;;;;6341648;22;20011;-89
2023/01/16 13:51:14;;;;;;;5.47;1.85;;;3.90;99.90;;;;;;6289455;22;20023;-90
2023/01/16 13:53:41;;;;;;;5.93;2.03;;;3.90;99.90;;;;;;6312132;22;20022;-90
2023/01/16 13:56:20;;;;;;;5.60;2.13;;;4.80;99.90;;;;;;6286670;22;20011;-87
2023/01/16 13:59:02;;;;;;;3.97;1.83;;;4.30;99.90;;;;;;6282344;22;20486;-89
2023/01/16 14:01:43;;;;;;;5.10;1.75;;;4.00;99.90;;;;;;6287118;22;20038;-94
2023/01/16 14:04:18;;;;;;;3.30;1.90;;;4.10;99.90;;;;;;6288563;22;20018;-93
2023/01/16 14:06:45;;;;;;;4.43;1.92;;;4.20;99.90;;;;;;6289793;22;20428;-88
2023/01/16 14:09:27;;;;;;;5.28;2.13;;;4.80;99.90;;;;;;6320606;22;20463;-92
2023/01/16 14:12:14;;;;;;;3.83;2.20;;;4.10;99.90;;;;;;6288853;22;20021;-90
2023/01/16 14:17:55;;;;;;;3.45;1.88;;;5.20;99.90;;;;;;6314119;22;20076;-92
2023/01/16 14:21:18;;;;;;;3.67;1.90;;;4.10;99.90;;;;;;6311287;22;20668;-91
2023/01/16 14:24:01;;;;;;;2.80;1.92;;;4.10;99.90;;;;;;6131776;23;20028;-89
2023/01/16 14:26:42;;;;;;;6.32;2.08;;;5.20;99.90;;;;;;6157966;23;20452;-93
2023/01/16 14:30:02;;;;;;;3.15;1.90;;;3.40;99.90;;;;;;6163749;23;20156;-87
2023/01/16 14:32:32;;;;;;;4.13;2.00;;;4.20;99.90;;;;;;6158689;23;20044;-93
2023/01/16 14:35:29;;;;;;;4.50;2.03;;;4.10;99.90;;;;;;6134960;23;20017;-89
2023/01/16 14:38:33;;;;;;;3.05;1.92;;;4.20;99.90;;;;;;6130437;23;20264;-87
2023/01/16 14:56:24;;;;;;;7.22;2.08;;;4.40;99.90;;;;;;5989798;23;20121;-90
2023/01/16 14:59:15;;;;;;;5.07;2.05;;;5.00;99.90;;;;;;6082358;23;20018;-93
2023/01/16 15:04:47;;;;;;;;;;;5.20;99.90;;;;;;6102990;23;20061;-92
2023/01/16 15:07:17;;;;;;;8.20;3.55;;;5.10;99.90;;;;;;6127364;23;19947;-88
2023/01/16 15:09:44;;;;;;;7.93;3.60;;;4.80;99.90;;;;;;6079689;23;20382;-86
2023/01/16 15:12:17;;;;;;;16.33;6.97;;;5.10;99.90;;;;;;6103470;23;20014;-90
2023/01/16 15:14:57;;;;;;;6.18;2.40;;;3.60;99.90;;;;;;6107673;23;20096;-88
2023/01/16 15:23:37;;;;;;;6.15;2.55;;;3.70;99.90;;;;;;6165170;23;20036;-87
2023/01/16 15:26:17;;;;;;;8.07;2.88;;;5.20;99.90;;;;;;6162707;23;20024;-88
2023/01/16 15:29:17;;;;;;;5.05;2.88;;;4.30;99.90;;;;;;6277252;22;20041;-86
2023/01/16 15:32:00;;;;;;;6.55;3.33;;;4.30;99.90;;;;;;6284692;22;20076;-88
2023/01/16 15:34:30;;;;;;;7.90;3.78;;;4.50;99.90;;;;;;6286341;22;20019;-89
2023/01/16 15:37:00;;;;;;;8.38;2.10;;;4.50;99.90;;;;;;6285906;22;20684;-85
2023/01/16 15:39:30;;;;;;;5.65;1.90;;;3.70;99.90;;;;;;6309641;22;20058;-94
2023/01/16 15:48:10;;;;;;;3.78;1.98;;;5.50;99.90;;;;;;6311898;22;20019;-91
2023/01/16 15:50:52;;;;;;;5.15;2.20;;;4.30;99.90;;;;;;6288088;22;20022;-91
2023/01/16 15:53:22;;;;;;;6.30;2.10;;;5.00;99.90;;;;;;6287457;22;20030;-87
2023/01/16 15:55:50;;;;;;;4.57;1.90;;;5.20;99.90;;;;;;6285251;22;20022;-90
2023/01/16 15:58:35;;;;;;;5.78;2.53;;;4.50;99.90;;;;;;6285061;22;20022;-91
2023/01/16 16:01:08;;;;;;;6.95;2.42;;;4.70;99.90;;;;;;6311405;22;20049;-87
2023/01/16 16:03:47;;;;;;;3.67;2.30;;;4.60;99.90;;;;;;6285120;22;20481;-89
2023/01/16 16:06:15;;;;;;;4.75;2.45;;;5.30;99.90;;;;;;6311119;22;20015;-91
2023/01/16 16:08:48;;;;;;;5.10;2.33;;;5.20;99.90;;;;;;6265359;22;20044;-92
2023/01/16 16:20:39;;;;;;;5.45;2.63;;;4.30;99.90;;;;;;6038985;23;20066;-87
2023/01/16 16:23:25;;;;;;;3.80;2.70;;;4.30;99.90;;;;;;6062427;23;20399;-92
2023/01/16 16:26:45;;;;;;;4.70;2.33;;;4.90;99.90;;;;;;6060081;23;20042;-88
2023/01/16 16:29:57;;;;;;;5.13;2.70;;;4.30;99.90;;;;;;6040635;23;20117;-89
2023/01/16 16:32:43;;;;;;;4.45;2.75;;;4.30;99.90;;;;;;5951481;24;20078;-86
2023/01/16 16:35:32;;;;;;;4.80;2.83;;;4.00;99.90;;;;;;5908068;23;20062;-88
2023/01/16 16:37:58;;;;;;;4.97;2.92;;;4.30;99.90;;;;;;5903175;24;20017;-94
2023/01/16 16:40:54;;;;;;;4.07;2.80;;;5.20;99.90;;;;;;5905231;24;20020;-88
2023/01/16 16:43:52;;;;;;;5.63;2.47;;;5.10;99.90;;;;;;5950728;24;20024;-88
2023/01/16 16:46:23;;;;;;;4.05;2.72;;;4.20;99.90;;;;;;5929424;24;20040;-91
2023/01/16 16:49:26;;;;;;;4.63;2.75;;;5.20;99.90;;;;;;5954122;24;20021;-93
2023/01/16 16:51:52;;;;;;;4.65;2.35;;;5.00;99.90;;;;;;6003221;23;20083;-89
2023/01/16 16:54:32;;;;;;;4.32;2.80;;;5.20;99.90;;;;;;6012487;23;20015;-87
2023/01/16 16:56:58;;;;;;;5.32;2.88;;;4.60;99.90;;;;;;6035985;23;20031;-88
2023/01/16 16:59:32;;;;;;;6.20;2.95;;;5.10;99.90;;;;;;6040213;23;20117;-87
2023/01/16 17:02:09;;;;;;;4.53;3.08;;;4.30;99.90;;;;;;6064366;23;20027;-88
2023/01/16 17:04:37;;;;;;;4.57;2.92;;;5.40;99.90;;;;;;6064185;23;20058;-88
2023/01/16 17:07:09;;;;;;;6.50;3.40;;;5.00;99.90;;;;;;6038255;23;20023;-86
2023/01/16 17:10:19;;;;;;;8.30;5.47;;;5.40;99.90;;;;;;6039135;23;20037;-88
2023/01/16 17:13:00;;;;;;;7.57;4.40;;;4.20;99.90;;;;;;6121561;23;20406;-87
2023/01/16 17:15:36;;;;;;;6.38;4.10;;;4.70;99.90;;;;;;6121630;23;20072;-86
2023/01/16 17:18:57;;;;;;;5.25;3.90;;;4.30;99.90;;;;;;6096167;23;20470;-88
2023/01/16 17:22:06;;;;;;;6.38;3.95;;;4.10;99.90;;;;;;6003054;23;20023;-87
2023/01/16 17:25:00;;;;;;;7.60;3.85;;;4.90;99.90;;;;;;6043523;23;20767;-87
2023/01/16 17:27:58;;;;;;;6.55;3.72;;;5.50;99.90;;;;;;5928137;24;20021;-86
2023/01/16 17:30:36;;;;;;;5.25;3.70;;;4.60;99.90;;;;;;5826462;24;20014;-93
2023/01/16 17:36:21;;;;;;;4.85;3.42;;;3.80;99.90;;;;;;5818610;24;20014;-88
2023/01/16 17:38:58;;;;;;;5.18;3.38;;;5.00;99.90;;;;;;5842745;24;20101;-94
2023/01/16 17:48:27;;;;;;;6.88;3.55;;;4.60;99.90;;;;;;5819262;24;20056;-87
2023/01/16 17:51:08;;;;;;;6.18;4.03;;;4.40;99.90;;;;;;5838513;24;20018;-90
2023/01/16 17:53:45;;;;;;;6.72;3.60;;;4.20;99.90;;;;;;5819899;24;20123;-88
2023/01/16 17:56:14;;;;;;;7.70;4.28;;;3.60;99.90;;;;;;5824458;24;20301;-86
2023/01/16 17:59:06;;;;;;;39.47;12.85;;;4.40;99.90;;;;;;5959234;23;20369;-87
2023/01/16 18:01:53;;;;;;;44.38;15.25;;;5.00;99.90;;;;;;6009627;23;20083;-88
2023/01/16 18:08:05;;;;;;;28.98;10.48;;;4.20;99.90;;;;;;6275086;22;20024;-87
2023/01/16 18:11:01;;;;;;;;;;;;;;;;;;;;;
2023/01/16 18:17:58;;;;;;;17.42;9.32;;;4.80;99.90;;;;;;6062665;23;20038;-95
2023/01/16 18:24:18;;;;;;;18.87;9.83;;;4.60;99.90;;;;;;6005929;23;20342;-87
2023/01/16 18:27:28;;;;;;;6.35;4.47;;;4.90;99.90;;;;;;5985128;23;20023;-89
2023/01/16 18:30:45;;;;;;;8.02;5.30;;;4.70;99.90;;;;;;5984059;23;20024;-87
2023/01/16 19:02:38;;;;;;;9.80;6.97;;;4.10;99.90;;;;;;5983906;23;20027;-95
2023/01/16 19:06:01;;;;;;;;;;;;;;;;;;;;;
2023/01/16 19:26:55;;;;;;;12.32;8.13;;;4.40;99.90;;;;;;5561284;22;15953556;-92
2023/01/16 19:29:51;;;;;;;9.90;7.43;;;5.00;99.90;;;;;;6195814;23;20085;-90
2023/01/16 19:32:32;;;;;;;12.77;8.35;;;5.20;99.90;;;;;;6194905;23;20016;-89
2023/01/16 19:35:11;;;;;;;10.13;6.93;;;4.70;99.90;;;;;;6223333;23;20448;-90
2023/01/16 19:37:48;;;;;;;10.05;7.07;;;4.00;99.90;;;;;;6224045;23;20020;-91
2023/01/16 19:40:15;;;;;;;10.43;6.85;;;3.20;99.90;;;;;;6222906;23;20023;-88
2023/01/16 19:48:11;;;;;;;12.75;8.10;;;4.20;99.90;;;;;;6223164;23;20024;-93
2023/01/16 19:50:42;;;;;;;12.85;7.97;;;4.50;99.90;;;;;;6197786;23;20016;-91
2023/01/16 19:53:10;;;;;;;11.70;7.68;;;4.60;99.90;;;;;;6198739;23;20049;-87
2023/01/16 19:55:37;;;;;;;10.68;6.93;;;3.60;99.90;;;;;;6198111;23;20089;-86
2023/01/16 19:58:13;;;;;;;10.73;6.93;;;3.60;99.90;;;;;;6197032;23;20103;-86
2023/01/16 20:01:01;;;;;;;10.90;7.03;;;4.50;99.90;;;;;;6198377;23;20474;-89
2023/01/16 20:03:39;;;;;;;10.10;6.57;;;3.40;99.90;;;;;;6222874;23;20012;-86
2023/01/16 20:06:26;;;;;;;9.38;6.00;;;4.30;99.90;;;;;;6101852;23;20028;-90
2023/01/16 20:08:59;;;;;;;8.20;5.45;;;3.30;99.90;;;;;;6197233;23;20016;-89
2023/01/16 20:14:38;;;;;;;9.80;5.68;;;3.80;99.90;;;;;;6222154;23;20020;-92
2023/01/16 20:17:14;;;;;;;8.05;5.35;;;4.10;99.90;;;;;;6224984;23;20012;-95
2023/01/16 20:19:50;;;;;;;8.02;5.28;;;2.50;99.90;;;;;;6200987;23;20870;-90
2023/01/16 20:22:45;;;;;;;7.97;5.32;;;4.20;99.90;;;;;;6201104;22;20152;-89
2023/01/16 20:25:58;;;;;;;9.25;5.90;;;2.80;99.90;;;;;;6240834;23;20020;-89
2023/01/16 20:29:25;;;;;;;;;;;;;;;;;;;;;
2023/01/16 20:32:06;;;;;;;7.93;4.95;;;3.50;99.90;;;;;;6249942;23;19994;-88
2023/01/16 20:35:03;;;;;;;8.23;5.10;;;2.40;99.90;;;;;;6219967;23;20103;-89
2023/01/16 20:37:29;;;;;;;8.73;4.70;;;3.80;99.90;;;;;;6220306;23;20020;-93
2023/01/16 20:40:32;;;;;;;8.18;5.30;;;3.40;99.90;;;;;;6196341;23;20064;-92
2023/01/16 20:46:24;;;;;;;6.60;4.00;;;3.70;99.90;;;;;;6157479;23;20024;-90
2023/01/16 20:49:01;;;;;;;5.18;3.35;;;3.50;99.90;;;;;;6106617;23;20018;-95
2023/01/16 20:51:32;;;;;;;4.85;2.72;;;3.50;99.90;;;;;;6108274;23;20021;-87
2023/01/16 20:54:24;;;;;;;5.28;3.00;;;3.10;99.90;;;;;;6129483;23;20102;-93
2023/01/16 20:57:26;;;;;;;5.55;2.55;;;2.40;99.90;;;;;;6130336;23;20021;-91
2023/01/16 20:59:58;;;;;;;4.95;2.80;;;2.60;99.90;;;;;;6138666;23;20017;-94
2023/01/16 21:05:35;;;;;;;4.20;2.50;;;2.40;99.90;;;;;;6078700;23;20026;-88
2023/01/16 21:08:31;;;;;;;4.78;3.00;;;2.40;99.90;;;;;;6050808;23;20015;-87
2023/01/16 21:14:09;;;;;;;5.00;3.08;;;2.40;99.90;;;;;;6075152;23;20029;-87
2023/01/16 21:14:14;;;;;;;6.25;3.28;;;3.10;99.90;;;;;;6075241;23;20023;-92
2023/01/16 21:23:12;;;;;;;8.30;5.00;;;2.30;99.90;;;;;;5990303;23;20031;-88
2023/01/16 21:26:08;;;;;;;10.35;5.57;;;3.30;99.90;;;;;;5990127;23;20024;-88
2023/01/16 21:28:45;;;;;;;6.18;3.85;;;3.50;99.90;;;;;;5995707;23;20051;-88
2023/01/16 21:31:16;;;;;;;7.45;4.38;;;3.80;99.90;;;;;;5988110;23;20023;-95
2023/01/16 21:33:50;;;;;;;8.30;5.15;;;2.20;99.90;;;;;;6027583;23;20032;-87
2023/01/16 21:36:56;;;;;;;8.13;4.90;;;3.70;99.90;;;;;;6015522;23;20023;-88
2023/01/16 21:39:52;;;;;;;10.55;5.65;;;3.00;99.90;;;;;;6016909;23;20417;-87
2023/01/16 21:49:52;;;;;;;9.25;5.60;;;2.90;99.90;;;;;;5990289;23;20028;-88
2023/01/16 21:52:22;;;;;;;;;;;3.30;99.90;;;;;;5945531;23;20102;-91
2023/01/16 21:55:02;;;;;;;8.98;5.30;;;3.00;99.90;;;;;;6040200;23;19915;-88
2023/01/16 22:01:02;;;;;;;8.18;5.22;;;1.60;99.90;;;;;;5997796;23;20024;-87
2023/01/16 22:03:46;;;;;;;9.52;5.15;;;2.00;99.90;;;;;;5996558;23;20075;-88
2023/01/16 22:06:53;;;;;;;7.70;4.70;;;3.40;99.90;;;;;;5984962;24;20031;-88
2023/01/16 22:09:28;;;;;;;7.25;5.07;;;2.80;99.90;;;;;;5958692;23;20072;-95
2023/01/16 22:17:56;;;;;;;7.90;3.90;;;2.60;99.90;;;;;;6079754;23;20030;-88
2023/01/16 22:24:01;;;;;;;7.95;2.78;;;3.80;99.90;;;;;;5989212;23;20488;-87
2023/01/16 22:26:45;;;;;;;10.23;2.42;;;2.00;99.90;;;;;;5900555;23;20029;-94
2023/01/16 22:30:04;;;;;;;7.80;2.40;;;3.20;99.90;;;;;;5854996;24;20041;-88
2023/01/16 22:35:35;;;;;;;4.13;1.38;;;3.30;99.90;;;;;;5888185;24;20056;-95
2023/01/16 22:38:10;;;;;;;4.55;1.30;;;3.60;99.90;;;;;;5948354;23;20021;-90
2023/01/16 22:40:39;;;;;;;;;;;3.90;99.90;;;;;;5952001;23;20013;-96
2023/01/16 22:46:52;;;;;;;3.23;1.10;;;3.00;99.90;;;;;;5925247;24;20031;-92
2023/01/16 22:49:21;;;;;;;7.72;0.90;;;3.10;99.90;;;;;;6024606;23;20023;-94
2023/01/16 22:52:11;;;;;;;5.85;0.70;;;4.10;99.90;;;;;;6018304;23;20094;-89
2023/01/16 22:55:14;;;;;;;2.10;0.60;;;3.10;99.90;;;;;;5977408;23;20063;-95
2023/01/16 22:58:16;;;;;;;1.10;0.32;;;3.00;99.90;;;;;;5992828;23;20071;-95
2023/01/16 23:00:51;;;;;;;2.13;0.52;;;2.80;99.90;;;;;;6051253;23;20866;-91
2023/01/16 23:03:54;;;;;;;2.58;0.55;;;3.70;99.90;;;;;;5991162;23;20068;-94
2023/01/16 23:06:43;;;;;;;0.63;0.43;;;3.10;99.90;;;;;;5905506;24;20021;-93
2023/01/16 23:09:35;;;;;;;3.45;0.65;;;3.50;99.90;;;;;;5928143;23;20026;-94
2023/01/16 23:12:01;;;;;;;2.97;0.57;;;4.00;99.90;;;;;;5890864;24;20021;-96
2023/01/16 23:15:16;;;;;;;3.75;0.50;;;3.10;99.90;;;;;;5929618;24;20113;-93
2023/01/16 23:18:04;;;;;;;1.85;0.52;;;3.10;99.90;;;;;;5932080;24;20101;-95
2023/01/16 23:21:06;;;;;;;3.25;0.45;;;3.10;99.90;;;;;;5932629;24;20017;-96
2023/01/16 23:24:04;;;;;;;;;;;;;;;;;;;;;
2023/01/16 23:27:24;;;;;;;3.25;0.70;;;2.70;99.90;;;;;;5952730;23;20032;-93
2023/01/16 23:30:11;;;;;;;2.47;0.43;;;2.90;99.90;;;;;;6021970;23;20026;-95
2023/01/16 23:32:41;;;;;;;2.45;0.68;;;3.20;99.90;;;;;;6043464;23;20035;-95
2023/01/16 23:36:05;;;;;;;1.42;0.50;;;3.20;99.90;;;;;;6020156;23;20035;-94
2023/01/16 23:39:22;;;;;;;1.52;0.45;;;3.20;99.90;;;;;;5959471;24;20048;-93
2023/01/16 23:45:57;;;;;;;4.32;0.30;;;3.40;99.90;;;;;;5993285;23;20023;-90
2023/01/16 23:48:29;;;;;;;0.60;0.30;;;2.90;99.90;;;;;;6018877;23;20028;-88
2023/01/16 23:50:55;;;;;;;1.52;0.30;;;4.10;99.90;;;;;;5996113;23;20083;-93
2023/01/16 23:53:50;;;;;;;3.63;0.30;;;3.60;99.90;;;;;;6016851;23;20474;-91
2023/01/16 23:56:22;;;;;;;4.10;1.10;;;3.80;99.90;;;;;;5995924;23;20019;-92
2023/01/16 23:58:59;;;;;;;2.67;0.40;;;4.40;99.90;;;;;;6023421;23;20030;-91
